Latest Coastal Weather Observations for Garden Island

IDW60701

Issued at 9:43 pm WST Monday 4 May 2026 (issued every 10 minutes, with the page automatically refreshed every 10 minutes)

About coastal observations | Map of coastal stations | Coastal observations for WA | Marine services | Other Formats
Station Details ID: 009256 Name: GARDEN ISLAND HSF Lat: -32.24 Lon: 115.68 Height: 6.0 m
Data from the previous 72 hours. | See also: Recent months at Garden Island
Date/Time
WST
Wind Sea
Height
m
Swell Vis
km
Cloud Weather Temp
°C
Press
MSL
hPa
Rain since
9am
mm
Dir  Spd
kts
Gust
kts
Height
m
Period
s
Dir
04/09:30pm SE 12 15 - - - - - - - 15.7 1026.7 0.0
04/09:00pm SE 14 17 - - - - - - - 16.2 1026.7 0.0
04/08:30pm SE 14 16 - - - - - - - 16.8 1026.5 0.0
04/08:00pm SE 14 17 - - - - - - - 17.3 1026.4 0.0
04/07:30pm SSE 16 19 - - - - - - - 17.8 1026.4 0.0
04/07:00pm S 17 20 - - - - - - - 18.3 1026.4 0.0
04/06:30pm S 17 20 - - - - - - - 18.6 1026.2 0.0
04/06:00pm SSW 17 20 - - - - - - - 18.7 1025.8 0.0
04/05:30pm SSW 17 19 - - - - - - - 18.5 1025.6 0.0
04/05:00pm SSW 16 20 - - - - - - - 18.5 1025.6 0.0
04/04:30pm SSW 16 18 - - - - - - - 18.6 1025.6 0.0
04/04:00pm SSW 13 15 - - - - - - - 19.0 1025.9 0.0
04/03:30pm SSW 12 14 - - - - - - - 18.9 1025.9 0.0
04/03:00pm SSW 11 13 - - - - - - - 19.0 1025.9 0.0
04/02:30pm SW 10 13 - - - - - - - 18.8 1026.0 0.0
04/02:00pm SW 8 11 - - - - - - - 19.1 1026.0 0.0
04/01:30pm SW 7 8 - - - - - - - 19.1 1026.2 0.0
04/01:00pm SSW 7 8 - - - - - - - 19.1 1026.6 0.0
04/12:30pm CALM 0 0 - - - - - - - 19.6 1027.1 0.0
04/12:00pm N 3 6 - - - - - - - 19.9 1027.6 0.0
04/11:30am NNE 4 8 - - - - - - - 19.3 1028.1 0.0
04/11:00am NE 8 12 - - - - - - - 19.4 1028.2 0.0
04/10:30am ENE 7 9 - - - - - - - 19.1 1028.4 0.0
04/10:00am E 8 11 - - - - - - - 17.8 1028.3 0.0
04/09:30am ENE 8 11 - - - - - - - 16.9 1028.4 0.0
04/09:00am ENE 6 10 - - - - - - - 16.1 1028.6 0.0
04/08:30am E 6 9 - - - - - - - 15.3 1028.6 0.0
04/08:00am E 6 8 - - - - - - - 14.0 1028.4 0.0
04/07:30am E 5 7 - - - - - - - 12.3 1028.1 0.0
04/07:00am E 5 7 - - - - - - - 11.3 1027.8 0.0
04/06:30am E 6 7 - - - - - - - 12.0 1027.5 0.0
04/06:00am E 8 11 - - - - - - - 12.5 1027.5 0.0
04/05:30am E 6 8 - - - - - - - 12.2 1027.4 0.0
04/05:00am E 7 10 - - - - - - - 12.7 1027.3 0.0
04/04:30am ESE 8 11 - - - - - - - 13.0 1027.1 0.0
04/04:00am ESE 10 14 - - - - - - - 13.2 1027.0 0.0
04/03:30am ESE 8 11 - - - - - - - 13.5 1027.2 0.0
04/03:00am SE 8 11 - - - - - - - 14.3 1027.3 0.0
04/02:30am SE 11 12 - - - - - - - 14.2 1027.2 0.0
04/02:00am ESE 6 7 - - - - - - - 13.7 1027.0 0.0
04/01:30am ESE 6 7 - - - - - - - 13.3 1027.0 0.0
04/01:00am ESE 7 8 - - - - - - - 13.8 1027.1 0.0
04/12:30am ESE 6 8 - - - - - - - 13.7 1027.0 0.0
04/12:00am ESE 7 9 - - - - - - - 14.7 1026.8 0.0
 
Date/Time
WST
Wind Sea
Height
m
Swell Vis
km
Cloud Weather Temp
°C
Press
MSL
hPa
Rain since
9am
mm
Dir  Spd
kts
Gust
kts
Height
m
Period
s
Dir
03/11:30pm SE 8 10 - - - - - - - 15.3 1026.8 0.0
03/11:00pm SE 9 12 - - - - - - - 15.5 1027.0 0.0
03/10:30pm SE 11 14 - - - - - - - 15.9 1026.9 0.0
03/10:00pm SE 11 13 - - - - - - - 15.7 1026.9 0.0
03/09:30pm SE 11 13 - - - - - - - 16.1 1026.7 0.0
03/09:00pm SE 11 13 - - - - - - - 16.4 1026.5 0.0
03/08:30pm SE 12 14 - - - - - - - 16.9 1026.3 0.0
03/08:00pm SSE 13 15 - - - - - - - 17.3 1026.2 0.0
03/07:30pm SSE 11 14 - - - - - - - 17.5 1026.1 0.0
03/07:00pm SSE 10 12 - - - - - - - 18.5 1025.8 0.0
03/06:30pm S 7 8 - - - - - - - 18.9 1025.6 0.0
03/06:00pm SSW 10 11 - - - - - - - 18.9 1025.2 0.0
03/05:30pm SSW 9 11 - - - - - - - 18.7 1025.2 0.0
03/05:00pm SW 10 12 - - - - - - - 18.4 1025.1 0.0
03/04:30pm SSW 10 11 - - - - - - - 18.2 1025.0 0.0
03/04:00pm SW 8 10 - - - - - - - 18.1 1025.0 0.0
03/03:30pm WSW 7 9 - - - - - - - 18.1 1025.3 0.0
03/03:00pm SW 8 10 - - - - - - - 17.9 1025.1 0.0
03/02:30pm SSW 10 11 - - - - - - - 17.8 1025.2 0.0
03/02:00pm CALM 0 3 - - - - - - - 18.8 1025.3 0.0
03/01:30pm NE 4 7 - - - - - - - 19.0 1025.4 0.0
03/01:00pm NE 7 10 - - - - - - - 19.3 1025.7 0.0
03/12:30pm NE 7 9 - - - - - - - 18.4 1026.3 0.0
03/12:00pm ENE 6 8 - - - - - - - 18.0 1026.7 0.0
03/11:30am NE 7 9 - - - - - - - 17.6 1026.9 0.0
03/11:00am E 7 11 - - - - - - - 17.0 1027.1 0.0
03/10:30am E 7 10 - - - - - - - 15.9 1027.5 0.0
03/10:00am E 9 13 - - - - - - - 14.9 1027.6 0.0
03/09:30am ESE 9 12 - - - - - - - 13.8 1027.7 0.0
03/09:00am ESE 9 13 - - - - - - - 13.2 1027.6 0.0
03/08:30am SE 11 13 - - - - - - - 12.7 1027.4 0.0
03/08:00am SE 8 11 - - - - - - - 13.1 1027.3 0.0
03/07:30am ESE 5 7 - - - - - - - 12.1 1026.9 0.0
03/07:00am ESE 5 7 - - - - - - - 11.1 1026.5 0.0
03/06:30am ESE 6 7 - - - - - - - 11.5 1026.2 0.0
03/06:00am ESE 7 8 - - - - - - - 11.9 1026.0 0.0
03/05:30am ESE 6 7 - - - - - - - 12.1 1025.9 0.0
03/05:00am ESE 5 6 - - - - - - - 11.3 1025.7 0.0
03/04:30am SE 6 7 - - - - - - - 11.7 1025.5 0.0
03/04:00am ESE 5 7 - - - - - - - 11.8 1025.4 0.0
03/03:30am ESE 5 7 - - - - - - - 11.8 1025.5 0.0
03/03:00am ESE 5 7 - - - - - - - 12.2 1025.6 0.0
03/02:30am SE 8 9 - - - - - - - 13.3 1025.6 0.0
03/02:00am SE 7 8 - - - - - - - 13.5 1025.6 0.0
03/01:30am SE 6 7 - - - - - - - 13.0 1025.5 0.0
03/01:00am ESE 5 7 - - - - - - - 12.5 1025.4 0.0
03/12:30am SE 5 7 - - - - - - - 13.0 1025.3 0.0
03/12:00am SE 7 9 - - - - - - - 13.9 1025.4 0.0
 
Date/Time
WST
Wind Sea
Height
m
Swell Vis
km
Cloud Weather Temp
°C
Press
MSL
hPa
Rain since
9am
mm
Dir  Spd
kts
Gust
kts
Height
m
Period
s
Dir
02/11:30pm SSE 7 8 - - - - - - - 14.2 1025.5 0.0
02/11:00pm SE 8 9 - - - - - - - 14.6 1025.7 0.0
02/10:30pm SE 8 9 - - - - - - - 14.8 1025.7 0.0
02/10:00pm SE 9 11 - - - - - - - 15.0 1025.7 0.0
02/09:30pm SE 7 9 - - - - - - - 15.0 1025.6 0.0
02/09:00pm SSE 8 9 - - - - - - - 15.6 1025.6 0.0
02/08:30pm SSE 9 10 - - - - - - - 15.9 1025.5 0.0
02/08:00pm SSE 8 10 - - - - - - - 16.2 1025.5 0.0
02/07:30pm SSE 8 9 - - - - - - - 16.1 1025.4 0.0
02/07:00pm SSE 8 9 - - - - - - - 16.2 1025.2 0.0
02/06:30pm SSE 7 9 - - - - - - - 16.0 1025.0 0.0
02/06:00pm SSE 8 9 - - - - - - - 16.0 1024.7 0.0
02/05:30pm SSE 10 14 - - - - - - - 16.4 1024.5 0.0
02/05:00pm S 10 14 - - - - - - - 16.6 1024.4 0.0
02/04:30pm S 11 15 - - - - - - - 16.8 1024.4 0.0
02/04:00pm S 14 17 - - - - - - - 16.9 1024.4 0.0
02/03:30pm S 13 16 - - - - - - - 16.8 1024.4 0.0
02/03:00pm S 13 15 - - - - - - - 16.9 1024.4 0.0
02/02:30pm SSW 14 17 - - - - - - - 16.5 1024.5 0.0
02/02:00pm S 12 15 - - - - - - - 16.4 1024.8 0.0
02/01:30pm S 14 18 - - - - - - - 16.1 1025.1 0.0
02/01:00pm S 12 15 - - - - - - - 16.4 1025.6 0.0
02/12:30pm S 13 18 - - - - - - - 15.8 1026.1 0.0
02/12:00pm S 15 19 - - - - - - - 15.5 1026.9 0.0
02/11:30am S 13 16 - - - - - - - 15.7 1027.2 0.0
02/11:00am SSE 13 17 - - - - - - - 15.4 1027.3 0.0
02/10:30am SSE 11 15 - - - - - - - 15.0 1027.3 0.0
02/10:00am SSE 11 14 - - - - - - - 14.5 1027.2 0.0
02/09:30am SE 6 8 - - - - - - - 13.7 1027.4 0.0
02/09:00am ESE 6 8 - - - - - - - 13.1 1027.4 0.0
02/08:30am SE 7 8 - - - - - - - 12.6 1027.2 0.0
02/08:00am ESE 6 8 - - - - - - - 12.1 1026.9 0.0
02/07:30am SE 8 9 - - - - - - - 11.4 1026.7 0.0
02/07:00am SE 8 9 - - - - - - - 10.9 1026.4 0.0
02/06:30am SE 7 9 - - - - - - - 10.4 1026.0 0.0
02/06:00am SE 9 11 - - - - - - - 10.5 1025.8 0.0
02/05:30am SE 11 13 - - - - - - - 10.9 1025.6 0.0
02/05:00am SE 10 12 - - - - - - - 10.9 1025.6 0.0
02/04:30am SE 10 12 - - - - - - - 11.1 1025.6 0.0
02/04:00am SE 9 11 - - - - - - - 11.0 1025.6 0.0
02/03:30am SE 10 11 - - - - - - - 11.0 1025.7 0.0
02/03:00am SE 10 11 - - - - - - - 11.2 1025.9 0.0
02/02:30am SE 10 11 - - - - - - - 11.3 1026.1 0.0
02/02:00am SE 10 13 - - - - - - - 11.2 1026.0 0.0
02/01:30am SE 11 12 - - - - - - - 11.5 1026.0 0.0
02/01:00am SE 12 14 - - - - - - - 11.8 1026.1 0.0
02/12:30am SE 13 15 - - - - - - - 12.3 1026.1 0.0
02/12:00am SE 12 14 - - - - - - - 12.4 1026.0 0.0
 
Date/Time
WST
Wind Sea
Height
m
Swell Vis
km
Cloud Weather Temp
°C
Press
MSL
hPa
Rain since
9am
mm
Dir  Spd
kts
Gust
kts
Height
m
Period
s
Dir
01/11:30pm SE 11 13 - - - - - - - 12.4 1026.0 0.0
01/11:00pm SE 11 13 - - - - - - - 12.4 1026.2 0.0
01/10:30pm SSE 13 15 - - - - - - - 12.7 1026.3 0.0
01/10:00pm SSE 14 16 - - - - - - - 12.9 1025.9 0.0

Other formats

Comma delimited format used in spreadsheet applications
http://www.bom.gov.au/fwo/IDW60701/IDW60701.95607.axf

JavaScript Object Notation format (JSON) in row-major order
http://www.bom.gov.au/fwo/IDW60701/IDW60701.95607.json

Data quality

Most of these data are generated automatically and are frequently updated. Quality checks on data are not normally performed. It is possible for incorrect values to appear. Refer to information at About Latest Weather Observations and please check the disclaimer before using these data.